sensor_id;sensor_type;location;lat;lon;timestamp;temperature;humidity
7204;DHT22;3643;52.460;13.322;2023-04-25T00:00:01;8.00;99.90
7204;DHT22;3643;52.460;13.322;2023-04-25T00:02:32;8.00;99.90
7204;DHT22;3643;52.460;13.322;2023-04-25T00:05:02;8.10;99.90
7204;DHT22;3643;52.460;13.322;2023-04-25T00:07:32;8.00;99.90
7204;DHT22;3643;52.460;13.322;2023-04-25T00:10:01;8.00;99.90
7204;DHT22;3643;52.460;13.322;2023-04-25T00:12:29;8.00;99.90
7204;DHT22;3643;52.460;13.322;2023-04-25T00:14:58;8.00;99.90
7204;DHT22;3643;52.460;13.322;2023-04-25T00:17:27;8.10;99.90
7204;DHT22;3643;52.460;13.322;2023-04-25T00:19:57;8.10;99.90
7204;DHT22;3643;52.460;13.322;2023-04-25T00:22:26;8.10;99.90
7204;DHT22;3643;52.460;13.322;2023-04-25T00:24:55;8.10;99.90
7204;DHT22;3643;52.460;13.322;2023-04-25T00:27:24;8.10;99.90
7204;DHT22;3643;52.460;13.322;2023-04-25T00:29:53;8.10;99.90
7204;DHT22;3643;52.460;13.322;2023-04-25T00:32:21;8.20;99.90
7204;DHT22;3643;52.460;13.322;2023-04-25T00:34:50;8.20;99.90
7204;DHT22;3643;52.460;13.322;2023-04-25T00:37:20;8.30;99.90
7204;DHT22;3643;52.460;13.322;2023-04-25T00:39:48;8.30;99.90
7204;DHT22;3643;52.460;13.322;2023-04-25T00:42:17;8.30;99.90
7204;DHT22;3643;52.460;13.322;2023-04-25T00:44:46;8.40;99.90
7204;DHT22;3643;52.460;13.322;2023-04-25T00:47:15;8.40;99.90
7204;DHT22;3643;52.460;13.322;2023-04-25T00:49:44;8.40;99.90
7204;DHT22;3643;52.460;13.322;2023-04-25T00:52:13;8.40;99.90
7204;DHT22;3643;52.460;13.322;2023-04-25T00:54:43;8.40;99.90
7204;DHT22;3643;52.460;13.322;2023-04-25T00:57:11;8.40;99.90
7204;DHT22;3643;52.460;13.322;2023-04-25T00:59:43;8.40;99.90
7204;DHT22;3643;52.460;13.322;2023-04-25T01:02:13;8.50;99.90
7204;DHT22;3643;52.460;13.322;2023-04-25T01:04:42;8.50;99.90
7204;DHT22;3643;52.460;13.322;2023-04-25T01:07:10;8.50;99.90
7204;DHT22;3643;52.460;13.322;2023-04-25T01:09:39;8.40;99.90
7204;DHT22;3643;52.460;13.322;2023-04-25T01:12:10;8.50;99.90
7204;DHT22;3643;52.460;13.322;2023-04-25T01:14:39;8.40;99.90
7204;DHT22;3643;52.460;13.322;2023-04-25T01:17:08;8.40;99.90
7204;DHT22;3643;52.460;13.322;2023-04-25T01:19:37;8.40;99.90
7204;DHT22;3643;52.460;13.322;2023-04-25T01:22:07;8.40;99.90
7204;DHT22;3643;52.460;13.322;2023-04-25T01:24:37;8.40;99.90
7204;DHT22;3643;52.460;13.322;2023-04-25T01:27:06;8.40;99.90
7204;DHT22;3643;52.460;13.322;2023-04-25T01:29:35;8.40;99.90
7204;DHT22;3643;52.460;13.322;2023-04-25T01:32:05;8.40;99.90
7204;DHT22;3643;52.460;13.322;2023-04-25T01:34:34;8.40;99.90
7204;DHT22;3643;52.460;13.322;2023-04-25T01:37:03;8.40;99.90
7204;DHT22;3643;52.460;13.322;2023-04-25T01:39:33;8.40;99.90
7204;DHT22;3643;52.460;13.322;2023-04-25T01:42:02;8.40;99.90
7204;DHT22;3643;52.460;13.322;2023-04-25T01:44:31;8.40;99.90
7204;DHT22;3643;52.460;13.322;2023-04-25T01:46:59;8.40;99.90
7204;DHT22;3643;52.460;13.322;2023-04-25T01:49:28;8.40;99.90
7204;DHT22;3643;52.460;13.322;2023-04-25T01:51:56;8.40;99.90
7204;DHT22;3643;52.460;13.322;2023-04-25T01:54:25;8.40;99.90
7204;DHT22;3643;52.460;13.322;2023-04-25T01:56:57;8.40;99.90
7204;DHT22;3643;52.460;13.322;2023-04-25T01:59:25;8.40;99.90
7204;DHT22;3643;52.460;13.322;2023-04-25T02:01:54;8.40;99.90
7204;DHT22;3643;52.460;13.322;2023-04-25T02:04:22;8.40;99.90
7204;DHT22;3643;52.460;13.322;2023-04-25T02:06:51;8.40;99.90
7204;DHT22;3643;52.460;13.322;2023-04-25T02:09:21;8.40;99.90
7204;DHT22;3643;52.460;13.322;2023-04-25T02:11:49;8.50;99.90
7204;DHT22;3643;52.460;13.322;2023-04-25T02:14:19;8.50;99.90
7204;DHT22;3643;52.460;13.322;2023-04-25T02:16:48;8.50;99.90
7204;DHT22;3643;52.460;13.322;2023-04-25T02:19:18;8.50;99.90
7204;DHT22;3643;52.460;13.322;2023-04-25T02:21:47;8.50;99.90
7204;DHT22;3643;52.460;13.322;2023-04-25T02:24:15;8.50;99.90
7204;DHT22;3643;52.460;13.322;2023-04-25T02:26:44;8.50;99.90
7204;DHT22;3643;52.460;13.322;2023-04-25T02:29:13;8.40;99.90
7204;DHT22;3643;52.460;13.322;2023-04-25T02:31:43;8.40;99.90
7204;DHT22;3643;52.460;13.322;2023-04-25T02:34:12;8.40;99.90
7204;DHT22;3643;52.460;13.322;2023-04-25T02:36:41;8.40;99.90
7204;DHT22;3643;52.460;13.322;2023-04-25T02:39:09;8.40;99.90
7204;DHT22;3643;52.460;13.322;2023-04-25T02:41:38;8.40;99.90
7204;DHT22;3643;52.460;13.322;2023-04-25T02:44:07;8.30;99.90
7204;DHT22;3643;52.460;13.322;2023-04-25T02:46:35;8.30;99.90
7204;DHT22;3643;52.460;13.322;2023-04-25T02:49:07;8.30;99.90
7204;DHT22;3643;52.460;13.322;2023-04-25T02:51:36;8.30;99.90
7204;DHT22;3643;52.460;13.322;2023-04-25T02:54:05;8.30;99.90
7204;DHT22;3643;52.460;13.322;2023-04-25T02:56:33;8.30;99.90
7204;DHT22;3643;52.460;13.322;2023-04-25T02:59:02;8.30;99.90
7204;DHT22;3643;52.460;13.322;2023-04-25T03:01:31;8.20;99.90
7204;DHT22;3643;52.460;13.322;2023-04-25T03:03:59;8.30;99.90
7204;DHT22;3643;52.460;13.322;2023-04-25T03:06:29;8.20;99.90
7204;DHT22;3643;52.460;13.322;2023-04-25T03:08:58;8.20;99.90
7204;DHT22;3643;52.460;13.322;2023-04-25T03:11:27;8.20;99.90
7204;DHT22;3643;52.460;13.322;2023-04-25T03:13:56;8.20;99.90
7204;DHT22;3643;52.460;13.322;2023-04-25T03:16:24;8.20;99.90
7204;DHT22;3643;52.460;13.322;2023-04-25T03:18:54;8.20;99.90
7204;DHT22;3643;52.460;13.322;2023-04-25T03:21:22;8.20;99.90
7204;DHT22;3643;52.460;13.322;2023-04-25T03:23:52;8.20;99.90
7204;DHT22;3643;52.460;13.322;2023-04-25T03:26:21;8.20;99.90
7204;DHT22;3643;52.460;13.322;2023-04-25T03:28:49;8.20;99.90
7204;DHT22;3643;52.460;13.322;2023-04-25T03:31:19;8.20;99.90
7204;DHT22;3643;52.460;13.322;2023-04-25T03:33:48;8.20;99.90
7204;DHT22;3643;52.460;13.322;2023-04-25T03:36:17;8.20;99.90
7204;DHT22;3643;52.460;13.322;2023-04-25T03:38:45;8.10;99.90
7204;DHT22;3643;52.460;13.322;2023-04-25T03:41:16;8.10;99.90
7204;DHT22;3643;52.460;13.322;2023-04-25T03:43:45;8.20;99.90
7204;DHT22;3643;52.460;13.322;2023-04-25T03:46:14;8.10;99.90
7204;DHT22;3643;52.460;13.322;2023-04-25T03:48:43;8.90;99.90
7204;DHT22;3643;52.460;13.322;2023-04-25T03:51:11;8.10;99.90
7204;DHT22;3643;52.460;13.322;2023-04-25T03:53:40;8.10;99.90
7204;DHT22;3643;52.460;13.322;2023-04-25T03:56:08;8.20;99.90
7204;DHT22;3643;52.460;13.322;2023-04-25T03:58:38;8.10;99.90
7204;DHT22;3643;52.460;13.322;2023-04-25T04:01:07;8.10;99.90
7204;DHT22;3643;52.460;13.322;2023-04-25T04:03:35;8.10;99.90
7204;DHT22;3643;52.460;13.322;2023-04-25T04:06:05;8.10;99.90
7204;DHT22;3643;52.460;13.322;2023-04-25T04:08:34;8.10;99.90
7204;DHT22;3643;52.460;13.322;2023-04-25T04:11:02;8.10;99.90
7204;DHT22;3643;52.460;13.322;2023-04-25T04:13:31;8.10;99.90
7204;DHT22;3643;52.460;13.322;2023-04-25T04:16:00;8.10;99.90
7204;DHT22;3643;52.460;13.322;2023-04-25T04:18:30;8.10;99.90
7204;DHT22;3643;52.460;13.322;2023-04-25T04:21:00;8.10;99.90
7204;DHT22;3643;52.460;13.322;2023-04-25T04:23:28;8.10;99.90
7204;DHT22;3643;52.460;13.322;2023-04-25T04:25:56;8.10;99.90
7204;DHT22;3643;52.460;13.322;2023-04-25T04:28:25;8.10;99.90
7204;DHT22;3643;52.460;13.322;2023-04-25T04:30:53;8.10;99.90
7204;DHT22;3643;52.460;13.322;2023-04-25T04:33:23;8.10;99.90
7204;DHT22;3643;52.460;13.322;2023-04-25T04:35:52;8.10;99.90
7204;DHT22;3643;52.460;13.322;2023-04-25T04:38:22;8.20;99.90
7204;DHT22;3643;52.460;13.322;2023-04-25T04:40:51;8.20;99.90
7204;DHT22;3643;52.460;13.322;2023-04-25T04:43:19;8.20;99.90
7204;DHT22;3643;52.460;13.322;2023-04-25T04:45:47;8.30;99.90
7204;DHT22;3643;52.460;13.322;2023-04-25T04:48:16;8.30;99.90
7204;DHT22;3643;52.460;13.322;2023-04-25T04:50:46;8.40;99.90
7204;DHT22;3643;52.460;13.322;2023-04-25T04:53:15;8.40;99.90
7204;DHT22;3643;52.460;13.322;2023-04-25T04:55:43;8.50;99.90
7204;DHT22;3643;52.460;13.322;2023-04-25T04:58:11;8.50;99.90
7204;DHT22;3643;52.460;13.322;2023-04-25T05:00:39;8.60;99.90
7204;DHT22;3643;52.460;13.322;2023-04-25T05:03:08;8.60;99.90
7204;DHT22;3643;52.460;13.322;2023-04-25T05:05:38;8.60;99.90
7204;DHT22;3643;52.460;13.322;2023-04-25T05:08:08;8.70;99.90
7204;DHT22;3643;52.460;13.322;2023-04-25T05:10:36;8.70;99.90
7204;DHT22;3643;52.460;13.322;2023-04-25T05:13:04;8.70;99.90
7204;DHT22;3643;52.460;13.322;2023-04-25T05:15:33;8.70;99.90
7204;DHT22;3643;52.460;13.322;2023-04-25T05:18:02;8.70;99.90
7204;DHT22;3643;52.460;13.322;2023-04-25T05:20:30;8.70;99.90
7204;DHT22;3643;52.460;13.322;2023-04-25T05:22:59;8.80;99.90
7204;DHT22;3643;52.460;13.322;2023-04-25T05:25:29;8.70;99.90
7204;DHT22;3643;52.460;13.322;2023-04-25T05:27:57;8.70;99.90
7204;DHT22;3643;52.460;13.322;2023-04-25T05:30:25;8.70;99.90
7204;DHT22;3643;52.460;13.322;2023-04-25T05:32:54;8.80;99.90
7204;DHT22;3643;52.460;13.322;2023-04-25T05:35:22;8.80;99.90
7204;DHT22;3643;52.460;13.322;2023-04-25T05:37:51;8.90;99.90
7204;DHT22;3643;52.460;13.322;2023-04-25T05:40:19;9.00;99.90
7204;DHT22;3643;52.460;13.322;2023-04-25T05:42:49;9.00;99.90
7204;DHT22;3643;52.460;13.322;2023-04-25T05:45:17;9.10;99.90
7204;DHT22;3643;52.460;13.322;2023-04-25T05:47:46;9.00;99.90
7204;DHT22;3643;52.460;13.322;2023-04-25T05:50:14;8.90;99.90
7204;DHT22;3643;52.460;13.322;2023-04-25T05:52:42;8.90;99.90
7204;DHT22;3643;52.460;13.322;2023-04-25T05:55:11;9.00;99.90
7204;DHT22;3643;52.460;13.322;2023-04-25T05:57:40;9.00;99.90
7204;DHT22;3643;52.460;13.322;2023-04-25T06:00:14;8.90;99.90
7204;DHT22;3643;52.460;13.322;2023-04-25T06:02:43;8.90;99.90
7204;DHT22;3643;52.460;13.322;2023-04-25T06:05:11;8.90;99.90
7204;DHT22;3643;52.460;13.322;2023-04-25T06:07:40;8.80;99.90
7204;DHT22;3643;52.460;13.322;2023-04-25T06:10:09;8.80;99.90
7204;DHT22;3643;52.460;13.322;2023-04-25T06:12:37;8.80;99.90
7204;DHT22;3643;52.460;13.322;2023-04-25T06:15:07;8.90;99.90
7204;DHT22;3643;52.460;13.322;2023-04-25T06:17:55;8.90;99.90
7204;DHT22;3643;52.460;13.322;2023-04-25T06:20:24;8.90;99.90
7204;DHT22;3643;52.460;13.322;2023-04-25T06:22:52;9.00;99.90
7204;DHT22;3643;52.460;13.322;2023-04-25T06:25:21;9.00;99.90
7204;DHT22;3643;52.460;13.322;2023-04-25T06:27:49;9.10;99.90
7204;DHT22;3643;52.460;13.322;2023-04-25T06:30:18;9.30;99.90
7204;DHT22;3643;52.460;13.322;2023-04-25T06:32:49;9.40;99.90
7204;DHT22;3643;52.460;13.322;2023-04-25T06:35:19;9.20;99.90
7204;DHT22;3643;52.460;13.322;2023-04-25T06:37:47;9.40;99.90
7204;DHT22;3643;52.460;13.322;2023-04-25T06:40:16;9.40;99.90
7204;DHT22;3643;52.460;13.322;2023-04-25T06:42:45;9.30;99.90
7204;DHT22;3643;52.460;13.322;2023-04-25T06:45:13;9.20;99.90
7204;DHT22;3643;52.460;13.322;2023-04-25T06:47:42;9.10;99.90
7204;DHT22;3643;52.460;13.322;2023-04-25T06:50:10;9.20;99.90
7204;DHT22;3643;52.460;13.322;2023-04-25T06:52:40;9.20;99.90
7204;DHT22;3643;52.460;13.322;2023-04-25T06:55:09;9.30;99.90
7204;DHT22;3643;52.460;13.322;2023-04-25T06:57:37;9.30;99.90
7204;DHT22;3643;52.460;13.322;2023-04-25T07:00:07;9.30;99.90
7204;DHT22;3643;52.460;13.322;2023-04-25T07:02:36;9.10;99.90
7204;DHT22;3643;52.460;13.322;2023-04-25T07:05:05;9.10;99.90
7204;DHT22;3643;52.460;13.322;2023-04-25T07:07:33;9.00;99.90
7204;DHT22;3643;52.460;13.322;2023-04-25T07:10:04;9.00;99.90
7204;DHT22;3643;52.460;13.322;2023-04-25T07:12:33;9.00;99.90
7204;DHT22;3643;52.460;13.322;2023-04-25T07:15:01;8.90;99.90
7204;DHT22;3643;52.460;13.322;2023-04-25T07:17:33;8.90;99.90
7204;DHT22;3643;52.460;13.322;2023-04-25T07:20:02;8.90;99.90
7204;DHT22;3643;52.460;13.322;2023-04-25T07:22:32;8.90;99.90
7204;DHT22;3643;52.460;13.322;2023-04-25T07:25:03;8.80;99.90
7204;DHT22;3643;52.460;13.322;2023-04-25T07:27:32;8.80;99.90
7204;DHT22;3643;52.460;13.322;2023-04-25T07:30:00;8.80;99.90
7204;DHT22;3643;52.460;13.322;2023-04-25T07:32:30;8.70;99.90
7204;DHT22;3643;52.460;13.322;2023-04-25T07:34:59;8.70;99.90
7204;DHT22;3643;52.460;13.322;2023-04-25T07:37:28;8.70;99.90
7204;DHT22;3643;52.460;13.322;2023-04-25T07:39:56;8.70;99.90
7204;DHT22;3643;52.460;13.322;2023-04-25T07:42:26;8.70;99.90
7204;DHT22;3643;52.460;13.322;2023-04-25T07:44:54;8.90;99.90
7204;DHT22;3643;52.460;13.322;2023-04-25T07:47:23;9.00;99.90
7204;DHT22;3643;52.460;13.322;2023-04-25T07:49:52;9.10;99.90
7204;DHT22;3643;52.460;13.322;2023-04-25T07:52:21;9.30;99.90
7204;DHT22;3643;52.460;13.322;2023-04-25T07:54:49;9.40;99.90
7204;DHT22;3643;52.460;13.322;2023-04-25T07:57:18;9.40;99.90
7204;DHT22;3643;52.460;13.322;2023-04-25T07:59:48;9.40;99.90
7204;DHT22;3643;52.460;13.322;2023-04-25T08:02:18;9.40;99.90
7204;DHT22;3643;52.460;13.322;2023-04-25T08:04:47;9.30;99.90
7204;DHT22;3643;52.460;13.322;2023-04-25T08:07:17;9.20;99.90
7204;DHT22;3643;52.460;13.322;2023-04-25T08:09:45;9.40;99.90
7204;DHT22;3643;52.460;13.322;2023-04-25T08:12:14;9.60;99.90
7204;DHT22;3643;52.460;13.322;2023-04-25T08:14:43;9.70;99.90
7204;DHT22;3643;52.460;13.322;2023-04-25T08:17:13;9.80;99.90
7204;DHT22;3643;52.460;13.322;2023-04-25T08:19:42;9.60;99.90
7204;DHT22;3643;52.460;13.322;2023-04-25T08:22:11;9.70;99.90
7204;DHT22;3643;52.460;13.322;2023-04-25T08:24:41;9.70;99.90
7204;DHT22;3643;52.460;13.322;2023-04-25T08:27:09;9.80;99.90
7204;DHT22;3643;52.460;13.322;2023-04-25T08:29:39;10.60;99.90
7204;DHT22;3643;52.460;13.322;2023-04-25T08:32:08;10.50;99.90
7204;DHT22;3643;52.460;13.322;2023-04-25T08:34:38;10.70;99.90
7204;DHT22;3643;52.460;13.322;2023-04-25T08:37:09;11.00;99.90
7204;DHT22;3643;52.460;13.322;2023-04-25T08:39:38;10.90;99.90
7204;DHT22;3643;52.460;13.322;2023-04-25T08:42:07;10.90;99.90
7204;DHT22;3643;52.460;13.322;2023-04-25T08:44:36;10.80;99.90
7204;DHT22;3643;52.460;13.322;2023-04-25T08:47:05;10.80;99.90
7204;DHT22;3643;52.460;13.322;2023-04-25T08:49:34;11.00;99.90
7204;DHT22;3643;52.460;13.322;2023-04-25T08:52:06;11.20;99.90
7204;DHT22;3643;52.460;13.322;2023-04-25T08:54:41;11.40;99.90
7204;DHT22;3643;52.460;13.322;2023-04-25T08:57:12;11.60;99.90
7204;DHT22;3643;52.460;13.322;2023-04-25T08:59:42;11.70;99.90
7204;DHT22;3643;52.460;13.322;2023-04-25T09:02:13;11.50;99.70
7204;DHT22;3643;52.460;13.322;2023-04-25T09:04:44;11.60;99.20
7204;DHT22;3643;52.460;13.322;2023-04-25T09:07:14;11.60;99.30
7204;DHT22;3643;52.460;13.322;2023-04-25T09:09:45;11.70;99.10
7204;DHT22;3643;52.460;13.322;2023-04-25T09:12:14;11.60;99.10
7204;DHT22;3643;52.460;13.322;2023-04-25T09:15:03;11.70;98.60
7204;DHT22;3643;52.460;13.322;2023-04-25T09:17:32;11.50;98.20
7204;DHT22;3643;52.460;13.322;2023-04-25T09:20:08;11.60;98.40
7204;DHT22;3643;52.460;13.322;2023-04-25T09:22:38;11.70;98.70
7204;DHT22;3643;52.460;13.322;2023-04-25T09:25:11;11.90;98.00
7204;DHT22;3643;52.460;13.322;2023-04-25T09:27:49;12.10;97.80
7204;DHT22;3643;52.460;13.322;2023-04-25T09:30:27;12.30;97.70
7204;DHT22;3643;52.460;13.322;2023-04-25T09:32:56;12.30;97.50
7204;DHT22;3643;52.460;13.322;2023-04-25T09:35:25;12.40;97.30
7204;DHT22;3643;52.460;13.322;2023-04-25T09:37:55;12.60;97.30
7204;DHT22;3643;52.460;13.322;2023-04-25T09:40:24;12.70;97.30
7204;DHT22;3643;52.460;13.322;2023-04-25T09:42:52;12.60;97.50
7204;DHT22;3643;52.460;13.322;2023-04-25T09:45:21;12.50;97.60
7204;DHT22;3643;52.460;13.322;2023-04-25T09:47:49;12.40;97.20
7204;DHT22;3643;52.460;13.322;2023-04-25T09:50:18;12.30;97.50
7204;DHT22;3643;52.460;13.322;2023-04-25T09:53:04;12.40;97.90
7204;DHT22;3643;52.460;13.322;2023-04-25T09:55:34;12.30;97.00
7204;DHT22;3643;52.460;13.322;2023-04-25T09:58:05;12.40;96.20
7204;DHT22;3643;52.460;13.322;2023-04-25T10:00:34;12.30;96.10
7204;DHT22;3643;52.460;13.322;2023-04-25T10:03:03;12.50;96.50
7204;DHT22;3643;52.460;13.322;2023-04-25T10:05:34;12.00;96.50
7204;DHT22;3643;52.460;13.322;2023-04-25T10:08:06;12.20;95.90
7204;DHT22;3643;52.460;13.322;2023-04-25T10:10:35;12.30;95.10
7204;DHT22;3643;52.460;13.322;2023-04-25T10:13:05;12.20;95.50
7204;DHT22;3643;52.460;13.322;2023-04-25T10:15:35;12.20;95.60
7204;DHT22;3643;52.460;13.322;2023-04-25T10:18:07;12.30;95.50
7204;DHT22;3643;52.460;13.322;2023-04-25T10:20:35;12.50;95.20
7204;DHT22;3643;52.460;13.322;2023-04-25T10:23:10;12.80;94.60
7204;DHT22;3643;52.460;13.322;2023-04-25T10:25:40;12.80;94.70
7204;DHT22;3643;52.460;13.322;2023-04-25T10:28:09;13.00;94.50
7204;DHT22;3643;52.460;13.322;2023-04-25T10:30:38;13.00;94.30
7204;DHT22;3643;52.460;13.322;2023-04-25T10:33:32;13.10;93.90
7204;DHT22;3643;52.460;13.322;2023-04-25T10:36:12;12.90;94.40
7204;DHT22;3643;52.460;13.322;2023-04-25T10:38:44;12.70;93.90
7204;DHT22;3643;52.460;13.322;2023-04-25T10:41:13;12.50;94.10
7204;DHT22;3643;52.460;13.322;2023-04-25T10:43:42;12.40;94.30
7204;DHT22;3643;52.460;13.322;2023-04-25T10:46:16;12.30;94.10
7204;DHT22;3643;52.460;13.322;2023-04-25T10:48:47;12.20;94.50
7204;DHT22;3643;52.460;13.322;2023-04-25T10:51:18;12.00;95.00
7204;DHT22;3643;52.460;13.322;2023-04-25T10:53:57;11.80;94.90
7204;DHT22;3643;52.460;13.322;2023-04-25T10:56:27;11.70;95.00
7204;DHT22;3643;52.460;13.322;2023-04-25T10:59:06;11.90;95.00
7204;DHT22;3643;52.460;13.322;2023-04-25T11:01:40;12.00;94.80
7204;DHT22;3643;52.460;13.322;2023-04-25T11:04:22;12.10;94.20
7204;DHT22;3643;52.460;13.322;2023-04-25T11:07:02;12.20;94.50
7204;DHT22;3643;52.460;13.322;2023-04-25T11:09:37;12.10;94.00
7204;DHT22;3643;52.460;13.322;2023-04-25T11:12:08;11.90;94.30
7204;DHT22;3643;52.460;13.322;2023-04-25T11:14:38;12.00;94.40
7204;DHT22;3643;52.460;13.322;2023-04-25T11:17:07;11.80;94.00
7204;DHT22;3643;52.460;13.322;2023-04-25T11:19:36;11.60;94.00
7204;DHT22;3643;52.460;13.322;2023-04-25T11:22:04;11.50;94.20
7204;DHT22;3643;52.460;13.322;2023-04-25T11:24:35;11.30;94.60
7204;DHT22;3643;52.460;13.322;2023-04-25T11:27:05;11.10;94.50
7204;DHT22;3643;52.460;13.322;2023-04-25T11:29:34;10.80;94.10
7204;DHT22;3643;52.460;13.322;2023-04-25T11:32:03;10.50;94.20
7204;DHT22;3643;52.460;13.322;2023-04-25T11:34:33;10.30;93.90
7204;DHT22;3643;52.460;13.322;2023-04-25T11:37:02;10.30;93.70
7204;DHT22;3643;52.460;13.322;2023-04-25T11:39:31;10.20;93.80
7204;DHT22;3643;52.460;13.322;2023-04-25T11:42:00;10.20;93.50
7204;DHT22;3643;52.460;13.322;2023-04-25T11:44:34;10.20;92.80
7204;DHT22;3643;52.460;13.322;2023-04-25T11:47:03;10.20;92.70
7204;DHT22;3643;52.460;13.322;2023-04-25T11:49:31;10.40;92.80
7204;DHT22;3643;52.460;13.322;2023-04-25T11:52:00;10.50;92.80
7204;DHT22;3643;52.460;13.322;2023-04-25T11:54:28;10.80;92.80
7204;DHT22;3643;52.460;13.322;2023-04-25T11:56:57;11.20;92.30
7204;DHT22;3643;52.460;13.322;2023-04-25T11:59:27;11.40;92.20
7204;DHT22;3643;52.460;13.322;2023-04-25T12:01:55;11.50;92.40
7204;DHT22;3643;52.460;13.322;2023-04-25T12:04:25;11.80;92.40
7204;DHT22;3643;52.460;13.322;2023-04-25T12:06:55;11.90;92.50
7204;DHT22;3643;52.460;13.322;2023-04-25T12:09:29;12.00;92.30
7204;DHT22;3643;52.460;13.322;2023-04-25T12:11:59;11.80;92.40
7204;DHT22;3643;52.460;13.322;2023-04-25T12:14:33;11.80;92.90
7204;DHT22;3643;52.460;13.322;2023-04-25T12:17:02;11.80;93.20
7204;DHT22;3643;52.460;13.322;2023-04-25T12:19:34;11.90;92.90
7204;DHT22;3643;52.460;13.322;2023-04-25T12:22:10;12.00;92.10
7204;DHT22;3643;52.460;13.322;2023-04-25T12:24:46;12.10;92.20
7204;DHT22;3643;52.460;13.322;2023-04-25T12:27:15;12.20;92.40
7204;DHT22;3643;52.460;13.322;2023-04-25T12:29:53;12.20;92.20
7204;DHT22;3643;52.460;13.322;2023-04-25T12:32:22;12.40;91.70
7204;DHT22;3643;52.460;13.322;2023-04-25T12:34:50;12.50;91.50
7204;DHT22;3643;52.460;13.322;2023-04-25T12:37:19;12.50;91.30
7204;DHT22;3643;52.460;13.322;2023-04-25T12:39:47;12.40;91.70
7204;DHT22;3643;52.460;13.322;2023-04-25T12:42:16;12.40;91.20
7204;DHT22;3643;52.460;13.322;2023-04-25T12:44:44;12.30;91.60
7204;DHT22;3643;52.460;13.322;2023-04-25T12:47:15;12.10;91.90
7204;DHT22;3643;52.460;13.322;2023-04-25T12:49:43;12.20;92.10
7204;DHT22;3643;52.460;13.322;2023-04-25T12:52:11;12.10;92.40
7204;DHT22;3643;52.460;13.322;2023-04-25T12:54:40;12.10;92.30
7204;DHT22;3643;52.460;13.322;2023-04-25T12:57:08;11.90;91.80
7204;DHT22;3643;52.460;13.322;2023-04-25T12:59:38;11.60;91.70
7204;DHT22;3643;52.460;13.322;2023-04-25T13:02:06;11.40;91.80
7204;DHT22;3643;52.460;13.322;2023-04-25T13:04:36;11.40;92.20
7204;DHT22;3643;52.460;13.322;2023-04-25T13:07:05;11.40;92.00
7204;DHT22;3643;52.460;13.322;2023-04-25T13:09:33;11.50;91.80
7204;DHT22;3643;52.460;13.322;2023-04-25T13:12:01;11.40;91.70
7204;DHT22;3643;52.460;13.322;2023-04-25T13:14:31;11.50;90.90
7204;DHT22;3643;52.460;13.322;2023-04-25T13:16:59;11.50;90.90
7204;DHT22;3643;52.460;13.322;2023-04-25T13:19:28;11.60;91.30
7204;DHT22;3643;52.460;13.322;2023-04-25T13:21:58;11.60;91.50
7204;DHT22;3643;52.460;13.322;2023-04-25T13:24:27;11.40;91.50
7204;DHT22;3643;52.460;13.322;2023-04-25T13:26:55;11.40;91.60
7204;DHT22;3643;52.460;13.322;2023-04-25T13:29:23;11.40;91.90
7204;DHT22;3643;52.460;13.322;2023-04-25T13:31:52;11.50;92.10
7204;DHT22;3643;52.460;13.322;2023-04-25T13:34:20;11.50;92.20
7204;DHT22;3643;52.460;13.322;2023-04-25T13:36:49;11.40;92.20
7204;DHT22;3643;52.460;13.322;2023-04-25T13:39:19;11.40;91.90
7204;DHT22;3643;52.460;13.322;2023-04-25T13:41:47;11.10;92.00
7204;DHT22;3643;52.460;13.322;2023-04-25T13:44:15;11.40;92.20
7204;DHT22;3643;52.460;13.322;2023-04-25T13:46:44;11.40;92.50
7204;DHT22;3643;52.460;13.322;2023-04-25T13:49:14;11.40;92.10
7204;DHT22;3643;52.460;13.322;2023-04-25T13:51:42;11.60;92.20
7204;DHT22;3643;52.460;13.322;2023-04-25T13:54:11;11.50;92.60
7204;DHT22;3643;52.460;13.322;2023-04-25T13:56:41;11.60;92.70
7204;DHT22;3643;52.460;13.322;2023-04-25T13:59:09;11.70;92.50
7204;DHT22;3643;52.460;13.322;2023-04-25T14:01:38;11.60;92.70
7204;DHT22;3643;52.460;13.322;2023-04-25T14:04:07;11.40;92.80
7204;DHT22;3643;52.460;13.322;2023-04-25T14:06:35;11.30;93.20
7204;DHT22;3643;52.460;13.322;2023-04-25T14:09:04;11.30;92.90
7204;DHT22;3643;52.460;13.322;2023-04-25T14:11:34;11.00;92.80
7204;DHT22;3643;52.460;13.322;2023-04-25T14:14:03;10.80;93.40
7204;DHT22;3643;52.460;13.322;2023-04-25T14:16:32;10.70;93.60
7204;DHT22;3643;52.460;13.322;2023-04-25T14:19:00;10.70;93.60
7204;DHT22;3643;52.460;13.322;2023-04-25T14:21:29;10.70;93.90
7204;DHT22;3643;52.460;13.322;2023-04-25T14:23:59;10.60;93.70
7204;DHT22;3643;52.460;13.322;2023-04-25T14:26:28;10.50;93.30
7204;DHT22;3643;52.460;13.322;2023-04-25T14:28:57;10.50;93.40
7204;DHT22;3643;52.460;13.322;2023-04-25T14:31:27;10.30;93.20
7204;DHT22;3643;52.460;13.322;2023-04-25T14:33:55;10.30;93.10
7204;DHT22;3643;52.460;13.322;2023-04-25T14:36:25;10.30;93.40
7204;DHT22;3643;52.460;13.322;2023-04-25T14:38:54;10.30;93.30
7204;DHT22;3643;52.460;13.322;2023-04-25T14:41:23;10.30;93.20
7204;DHT22;3643;52.460;13.322;2023-04-25T14:43:52;10.30;93.30
7204;DHT22;3643;52.460;13.322;2023-04-25T14:46:21;10.40;93.00
7204;DHT22;3643;52.460;13.322;2023-04-25T14:48:52;10.50;92.90
7204;DHT22;3643;52.460;13.322;2023-04-25T14:51:23;10.60;92.70
7204;DHT22;3643;52.460;13.322;2023-04-25T14:53:51;10.60;92.90
7204;DHT22;3643;52.460;13.322;2023-04-25T14:56:20;10.50;93.10
7204;DHT22;3643;52.460;13.322;2023-04-25T14:58:49;10.70;93.40
7204;DHT22;3643;52.460;13.322;2023-04-25T15:01:18;10.70;93.60
7204;DHT22;3643;52.460;13.322;2023-04-25T15:03:47;10.70;93.50
7204;DHT22;3643;52.460;13.322;2023-04-25T15:06:18;10.70;93.90
7204;DHT22;3643;52.460;13.322;2023-04-25T15:08:47;10.70;93.90
7204;DHT22;3643;52.460;13.322;2023-04-25T15:11:15;10.60;94.10
7204;DHT22;3643;52.460;13.322;2023-04-25T15:13:44;10.50;94.30
7204;DHT22;3643;52.460;13.322;2023-04-25T15:16:12;10.60;94.70
7204;DHT22;3643;52.460;13.322;2023-04-25T15:18:41;10.40;94.60
7204;DHT22;3643;52.460;13.322;2023-04-25T15:21:09;10.40;94.80
7204;DHT22;3643;52.460;13.322;2023-04-25T15:23:39;10.40;94.70
7204;DHT22;3643;52.460;13.322;2023-04-25T15:26:08;10.50;94.70
7204;DHT22;3643;52.460;13.322;2023-04-25T15:28:37;10.60;94.80
7204;DHT22;3643;52.460;13.322;2023-04-25T15:31:05;10.70;94.70
7204;DHT22;3643;52.460;13.322;2023-04-25T15:33:34;10.90;94.60
7204;DHT22;3643;52.460;13.322;2023-04-25T15:36:03;11.00;94.30
7204;DHT22;3643;52.460;13.322;2023-04-25T15:38:32;11.10;94.50
7204;DHT22;3643;52.460;13.322;2023-04-25T15:41:02;11.00;94.10
7204;DHT22;3643;52.460;13.322;2023-04-25T15:43:32;11.00;94.10
7204;DHT22;3643;52.460;13.322;2023-04-25T15:46:04;11.00;93.90
7204;DHT22;3643;52.460;13.322;2023-04-25T15:48:33;11.00;93.90
7204;DHT22;3643;52.460;13.322;2023-04-25T15:51:02;11.00;94.10
7204;DHT22;3643;52.460;13.322;2023-04-25T15:53:30;10.90;94.30
7204;DHT22;3643;52.460;13.322;2023-04-25T15:55:59;10.90;94.30
7204;DHT22;3643;52.460;13.322;2023-04-25T15:58:29;10.70;94.30
7204;DHT22;3643;52.460;13.322;2023-04-25T16:00:57;10.60;94.10
7204;DHT22;3643;52.460;13.322;2023-04-25T16:03:26;10.40;94.20
7204;DHT22;3643;52.460;13.322;2023-04-25T16:05:55;10.10;94.70
7204;DHT22;3643;52.460;13.322;2023-04-25T16:08:24;10.20;94.90